Time;durP1;ratioP1;P1;durP2;ratioP2;P2;SDS_P1;SDS_P2;PMS_P1;PMS_P2;Temp;Humidity;BMP_temperature;BMP_pressure;BME280_temperature;BME280_humidity;BME280_pressure;Samples;Min_cycle;Max_cycle;Signal;HPM_P1;HPM_P2
2022/12/26 00:01:46;;;;;;;22.08;9.93;;;;;;;12.37;100.00;95167.53;5061659;28;20036;-91
2022/12/26 00:04:12;;;;;;;22.75;10.02;;;;;;;12.05;100.00;95166.63;5061587;28;20024;-90
2022/12/26 00:06:37;;;;;;;17.95;9.45;;;;;;;12.25;100.00;95171.16;5061519;28;20082;-90
2022/12/26 00:09:05;;;;;;;20.23;9.82;;;;;;;12.56;100.00;95179.13;5061519;28;20024;-90
2022/12/26 00:11:30;;;;;;;25.50;9.45;;;;;;;12.30;100.00;95176.44;5077991;28;20035;-91
2022/12/26 00:13:59;;;;;;;20.20;9.50;;;;;;;12.65;100.00;95183.91;5061489;28;20429;-90
2022/12/26 00:16:25;;;;;;;23.20;9.15;;;;;;;12.63;100.00;95178.13;5061195;28;20035;-90
2022/12/26 00:18:51;;;;;;;21.38;8.70;;;;;;;12.67;100.00;95176.53;5077900;28;20445;-90
2022/12/26 00:21:16;;;;;;;15.77;7.45;;;;;;;12.83;100.00;95179.97;5061285;28;20028;-90
2022/12/26 00:23:42;;;;;;;16.65;7.75;;;;;;;12.77;100.00;95181.84;5061221;28;20029;-91
2022/12/26 00:26:11;;;;;;;23.23;9.68;;;;;;;12.61;100.00;95173.13;5061082;28;20040;-90
2022/12/26 00:28:37;;;;;;;15.52;8.18;;;;;;;12.64;100.00;95180.47;5061165;28;20035;-90
2022/12/26 00:31:30;;;;;;;19.75;10.07;;;;;;;12.72;100.00;95174.72;5061110;28;20342;-90
2022/12/26 00:33:56;;;;;;;30.50;12.95;;;;;;;12.67;100.00;95166.03;5074344;28;20049;-90
2022/12/26 00:36:26;;;;;;;32.80;13.23;;;;;;;13.00;100.00;95170.00;5061081;28;20036;-90
2022/12/26 00:38:51;;;;;;;24.27;10.40;;;;;;;12.80;100.00;95172.59;5061119;28;20070;-90
2022/12/26 00:41:18;;;;;;;17.52;8.13;;;;;;;13.13;100.00;95166.06;5061264;28;20372;-91
2022/12/26 00:43:44;;;;;;;23.98;9.20;;;;;;;12.97;100.00;95169.75;5060871;28;20174;-90
2022/12/26 00:46:10;;;;;;;26.63;10.50;;;;;;;12.57;100.00;95177.31;5060727;28;20123;-91
2022/12/26 00:48:35;;;;;;;29.98;11.38;;;;;;;12.55;100.00;95180.19;5077494;28;20033;-90
2022/12/26 00:51:01;;;;;;;19.45;9.10;;;;;;;12.89;100.00;95183.41;5060725;28;20028;-90
2022/12/26 00:53:27;;;;;;;20.40;10.07;;;;;;;12.97;100.00;95180.25;5060730;28;20032;-90
2022/12/26 00:55:53;;;;;;;22.55;8.80;;;;;;;13.02;100.00;95175.00;5077113;28;20025;-90
2022/12/26 00:58:19;;;;;;;15.73;9.05;;;;;;;12.97;100.00;95178.41;5077031;28;20029;-90
2022/12/26 01:00:45;;;;;;;19.42;9.43;;;;;;;12.86;100.00;95185.50;5059404;28;20035;-91
2022/12/26 01:03:11;;;;;;;35.00;12.38;;;;;;;12.94;100.00;95176.31;5077071;28;20032;-90
2022/12/26 01:05:44;;;;;;;23.45;10.80;;;;;;;13.10;100.00;95181.56;5076881;28;20032;-90
2022/12/26 01:08:10;;;;;;;;;;;;;;;13.44;100.00;95183.72;5077507;28;20127;-90
2022/12/26 01:10:35;;;;;;;26.13;10.38;;;;;;;13.22;100.00;95179.47;5077902;28;19947;-91
2022/12/26 01:13:01;;;;;;;39.25;12.57;;;;;;;12.71;100.00;95196.81;5076781;28;20032;-90
2022/12/26 01:15:26;;;;;;;34.38;11.93;;;;;;;12.39;100.00;95194.34;5076858;28;20028;-90
2022/12/26 01:17:52;;;;;;;39.67;14.32;;;;;;;13.37;100.00;95191.06;5076538;28;20036;-90
2022/12/26 01:20:17;;;;;;;27.92;12.25;;;;;;;13.69;100.00;95192.63;5076707;28;20107;-90
2022/12/26 01:22:43;;;;;;;24.08;11.38;;;;;;;13.61;100.00;95193.94;5077753;28;20122;-90
2022/12/26 01:25:10;;;;;;;31.35;11.80;;;;;;;13.82;100.00;95189.44;5077857;28;20115;-90
2022/12/26 01:27:35;;;;;;;23.55;12.32;;;;;;;13.54;100.00;95196.06;5076444;28;20060;-90
2022/12/26 01:30:01;;;;;;;23.63;10.55;;;;;;;13.19;100.00;95202.88;5077547;28;20036;-90
2022/12/26 01:32:26;;;;;;;26.58;10.18;;;;;;;13.07;100.00;95190.81;5076384;28;20029;-90
2022/12/26 01:34:54;;;;;;;34.30;12.00;;;;;;;12.10;100.00;95184.25;5076576;28;20029;-91
2022/12/26 01:37:21;;;;;;;26.90;10.60;;;;;;;12.56;100.00;95194.13;5076300;28;20517;-90
2022/12/26 01:39:47;;;;;;;57.47;9.90;;;;;;;12.73;100.00;95188.63;5076235;28;20039;-90
2022/12/26 01:42:15;;;;;;;17.67;9.05;;;;;;;13.08;100.00;95192.38;5076191;28;20032;-90
2022/12/26 01:45:04;;;;;;;19.02;7.95;;;;;;;13.31;100.00;95192.13;5076160;28;20036;-89
2022/12/26 01:47:37;;;;;;;22.40;9.65;;;;;;;12.44;100.00;95187.28;5076342;28;20462;-90
2022/12/26 01:50:04;;;;;;;15.45;7.50;;;;;;;12.85;100.00;95188.41;5059637;28;20059;-90
2022/12/26 01:52:41;;;;;;;23.50;9.18;;;;;;;12.91;100.00;95186.56;5076154;28;20055;-90
2022/12/26 01:58:53;;;;;;;26.13;10.40;;;;;;;12.41;100.00;95185.16;5077046;28;20039;-90
2022/12/26 02:01:20;;;;;;;25.90;9.23;;;;;;;12.79;100.00;95184.19;5077114;28;20020;-90
2022/12/26 02:06:37;;;;;;;20.20;9.00;;;;;;;12.96;100.00;95197.09;5075988;28;20075;-90
2022/12/26 02:09:02;;;;;;;27.85;12.40;;;;;;;13.07;100.00;95180.28;5059288;28;20056;-90
2022/12/26 02:11:35;;;;;;;27.02;10.57;;;;;;;13.44;100.00;95188.97;5075409;28;20391;-89
2022/12/26 02:14:01;;;;;;;32.10;11.85;;;;;;;13.23;100.00;95181.06;5076067;28;20310;-90
2022/12/26 02:16:27;;;;;;;26.55;10.73;;;;;;;13.13;100.00;95181.84;5075843;28;20024;-91
2022/12/26 02:18:52;;;;;;;29.60;12.20;;;;;;;13.09;100.00;95182.63;5059220;28;20020;-91
2022/12/26 02:21:36;;;;;;;31.17;11.75;;;;;;;13.12;100.00;95171.56;5059149;28;20127;-89
2022/12/26 02:24:31;;;;;;;24.35;11.00;;;;;;;13.26;100.00;95177.88;5076798;28;20024;-90
2022/12/26 02:27:14;;;;;;;22.67;10.25;;;;;;;13.37;100.00;95186.59;5077000;28;20028;-89
2022/12/26 02:30:01;;;;;;;25.10;11.98;;;;;;;12.81;100.00;95182.06;5076104;28;20025;-90
2022/12/26 02:32:33;;;;;;;32.05;11.23;;;;;;;12.97;100.00;95191.56;5076692;28;20017;-90
2022/12/26 02:35:25;;;;;;;28.05;11.35;;;;;;;13.34;100.00;95188.94;5076953;28;20035;-91
2022/12/26 02:38:08;;;;;;;37.70;12.40;;;;;;;12.92;100.00;95188.16;5076663;28;20024;-89
2022/12/26 02:41:17;;;;;;;25.50;10.35;;;;;;;12.94;100.00;95186.81;5075580;28;20087;-89
2022/12/26 02:47:12;;;;;;;49.45;11.15;;;;;;;12.66;100.00;95182.84;5056760;28;20055;-89
2022/12/26 03:13:22;;;;;;;33.65;11.82;;;;;;;13.32;100.00;95162.88;5075292;28;20098;-90
2022/12/26 03:18:56;;;;;;;28.17;12.50;;;;;;;12.88;100.00;95151.06;5075580;28;20346;-90
2022/12/26 03:21:23;;;;;;;;;;;;;;;13.81;100.00;95164.16;5075698;28;20421;-90
2022/12/26 03:23:50;;;;;;;28.50;12.07;;;;;;;13.74;100.00;95161.03;5077292;28;20206;-89
2022/12/26 03:26:38;;;;;;;26.90;11.55;;;;;;;13.62;100.00;95160.53;5062590;28;20067;-90
2022/12/26 03:31:48;;;;;;;38.30;12.55;;;;;;;13.51;100.00;95167.66;5079180;28;20082;-90
2022/12/26 03:34:17;;;;;;;26.33;11.85;;;;;;;13.41;100.00;95152.59;5078826;28;20032;-89
2022/12/26 03:37:13;;;;;;;31.25;12.23;;;;;;;13.68;100.00;95162.88;5079057;28;20422;-89
2022/12/26 04:44:23;;;;;;;27.15;11.10;;;;;;;12.94;100.00;95139.47;5077779;28;20039;-89
2022/12/26 04:46:49;;;;;;;25.63;10.98;;;;;;;13.61;100.00;95140.50;5061368;28;20068;-90
2022/12/26 04:52:04;;;;;;;29.08;10.90;;;;;;;11.76;100.00;95147.81;5077666;28;20031;-89
2022/12/26 04:54:29;;;;;;;26.40;11.57;;;;;;;12.56;100.00;95152.09;5077185;28;20031;-89
2022/12/26 04:56:55;;;;;;;25.45;11.50;;;;;;;13.37;100.00;95152.38;5077347;28;20025;-90
2022/12/26 04:59:21;;;;;;;29.65;12.88;;;;;;;13.62;100.00;95155.25;5077084;28;20446;-89
2022/12/26 05:10:20;;;;;;;;;;;;;;;13.25;100.00;95149.22;5077772;28;20400;-89
2022/12/26 05:12:45;;;;;;;20.65;8.75;;;;;;;11.58;100.00;95153.25;5060556;28;19914;-89
2022/12/26 05:28:40;;;;;;;24.10;9.05;;;;;;;12.76;100.00;95148.66;5077228;28;20032;-90
2022/12/26 05:29:13;;;;;;;28.52;9.75;;;;;;;12.85;100.00;95157.63;5076582;28;20059;-89
2022/12/26 05:31:38;;;;;;;15.40;7.50;;;;;;;11.68;100.00;95176.13;5076586;28;20036;-89
2022/12/26 05:34:09;;;;;;;17.90;8.55;;;;;;;12.23;100.00;95168.03;5076651;28;20125;-90
2022/12/26 05:36:48;;;;;;;18.02;8.95;;;;;;;12.85;100.00;95167.38;5076311;28;20326;-88
2022/12/26 05:39:13;;;;;;;18.88;7.97;;;;;;;12.12;100.00;95169.81;5076560;28;20046;-89
2022/12/26 05:41:39;;;;;;;19.65;8.10;;;;;;;11.85;100.00;95168.09;5076531;28;20031;-89
2022/12/26 05:44:05;;;;;;;19.05;8.88;;;;;;;12.03;100.00;95179.22;5076645;28;20464;-89
2022/12/26 05:46:31;;;;;;;21.10;8.40;;;;;;;12.71;100.00;95178.41;5075750;28;20060;-90
2022/12/26 05:48:56;;;;;;;17.40;7.80;;;;;;;12.58;100.00;95198.06;5076075;28;20074;-90
2022/12/26 05:51:22;;;;;;;17.75;8.63;;;;;;;12.61;100.00;95191.50;5076253;28;20444;-90
2022/12/26 05:53:48;;;;;;;22.52;9.02;;;;;;;12.51;100.00;95192.28;5076197;28;20028;-90
2022/12/26 05:56:15;;;;;;;23.25;8.05;;;;;;;11.73;100.00;95199.78;5075740;28;20028;-89
2022/12/26 05:58:40;;;;;;;24.60;10.30;;;;;;;12.37;100.00;95191.19;5076119;28;20024;-90
2022/12/26 06:01:17;;;;;;;24.10;11.23;;;;;;;12.64;100.00;95198.09;5075639;28;20475;-89
2022/12/26 06:03:47;;;;;;;24.80;11.13;;;;;;;12.55;100.00;95193.34;5059662;28;20123;-89
2022/12/26 06:06:12;;;;;;;31.10;10.18;;;;;;;12.88;100.00;95185.25;5075975;28;20426;-90
2022/12/26 06:08:38;;;;;;;25.80;10.68;;;;;;;12.87;100.00;95194.19;5059279;28;20036;-89
2022/12/26 06:11:06;;;;;;;28.70;12.15;;;;;;;13.16;100.00;95188.44;5076004;28;20063;-89
2022/12/26 06:13:31;;;;;;;32.95;11.07;;;;;;;13.15;100.00;95185.00;5059551;28;20032;-89
2022/12/26 06:15:57;;;;;;;40.22;11.45;;;;;;;13.17;100.00;95183.94;5075994;28;20035;-89
2022/12/26 06:18:23;;;;;;;29.85;11.23;;;;;;;13.18;100.00;95190.78;5075873;28;20361;-87
2022/12/26 06:20:48;;;;;;;26.08;11.55;;;;;;;13.24;100.00;95187.88;5059383;28;20040;-90
2022/12/26 06:23:14;;;;;;;30.70;10.45;;;;;;;13.31;100.00;95192.88;5075803;28;20037;-90
2022/12/26 06:25:39;;;;;;;24.50;10.70;;;;;;;13.26;100.00;95175.25;5058381;28;20049;-89
2022/12/26 06:28:05;;;;;;;28.13;10.18;;;;;;;13.27;100.00;95181.31;5059272;28;20086;-90
2022/12/26 06:30:30;;;;;;;25.50;10.95;;;;;;;13.37;100.00;95178.69;5059322;28;20039;-89
2022/12/26 06:32:55;;;;;;;30.35;10.55;;;;;;;13.31;100.00;95178.97;5058995;28;20052;-90
2022/12/26 06:35:21;;;;;;;30.63;11.15;;;;;;;13.36;100.00;95177.13;5075484;28;20036;-89
2022/12/26 06:37:46;;;;;;;24.00;10.90;;;;;;;13.16;100.00;95183.16;5076034;28;20089;-89
2022/12/26 06:40:12;;;;;;;25.95;11.10;;;;;;;13.35;100.00;95178.16;5059192;28;20509;-90
2022/12/26 06:42:37;;;;;;;22.05;9.70;;;;;;;13.43;100.00;95192.63;5058909;28;20032;-90
2022/12/26 06:48:25;;;;;;;25.73;10.88;;;;;;;13.36;100.00;95192.91;5076556;28;20532;-89
2022/12/26 06:50:53;;;;;;;31.33;13.07;;;;;;;13.21;100.00;95201.59;5059123;28;20028;-89
2022/12/26 06:53:19;;;;;;;21.58;10.48;;;;;;;13.27;100.00;95195.28;5075621;28;20116;-89
2022/12/26 06:55:44;;;;;;;19.98;9.30;;;;;;;13.25;100.00;95196.59;5075565;28;20039;-89
2022/12/26 06:58:10;;;;;;;25.02;9.88;;;;;;;13.02;100.00;95209.19;5062161;28;20025;-90
2022/12/26 07:00:38;;;;;;;30.83;11.20;;;;;;;13.05;100.00;95194.72;5079849;28;20059;-90
2022/12/26 07:03:04;;;;;;;32.72;10.88;;;;;;;13.33;100.00;95198.69;5064900;28;20067;-90
2022/12/26 07:05:37;;;;;;;23.10;11.27;;;;;;;13.79;100.00;95195.22;5080731;28;20032;-90
2022/12/26 07:08:06;;;;;;;30.02;11.95;;;;;;;13.58;100.00;95191.84;5080730;28;20440;-90
2022/12/26 07:10:35;;;;;;;22.77;10.55;;;;;;;14.00;100.00;95201.25;5063628;28;20490;-90
2022/12/26 07:13:05;;;;;;;23.55;9.27;;;;;;;14.13;100.00;95204.38;5063052;28;20032;-90
2022/12/26 07:15:31;;;;;;;31.23;11.52;;;;;;;13.92;100.00;95201.81;5080453;28;20023;-89
2022/12/26 07:17:56;;;;;;;27.48;11.60;;;;;;;13.86;100.00;95213.41;5063216;28;20451;-90
2022/12/26 07:20:22;;;;;;;25.08;10.00;;;;;;;14.02;100.00;95202.81;5063127;28;20064;-90
2022/12/26 07:22:52;;;;;;;28.88;11.07;;;;;;;14.22;100.00;95205.41;5063133;28;20028;-88
2022/12/26 07:25:27;;;;;;;23.92;10.45;;;;;;;14.20;100.00;95204.88;5079400;28;20058;-89
2022/12/26 07:27:53;;;;;;;22.05;11.35;;;;;;;14.15;100.00;95223.34;5079699;28;20033;-90
2022/12/26 07:30:26;;;;;;;28.67;12.57;;;;;;;14.57;100.00;95218.69;5082166;28;20074;-91
2022/12/26 07:33:12;;;;;;;26.63;11.75;;;;;;;14.48;100.00;95210.53;5082958;28;20028;-91
2022/12/26 07:35:47;;;;;;;38.60;10.40;;;;;;;14.63;100.00;95212.34;5081174;28;20052;-92
2022/12/26 07:38:22;;;;;;;17.13;9.60;;;;;;;14.06;100.00;95217.03;5067311;28;20077;-91
2022/12/26 07:41:05;;;;;;;;;;;;;;;;;;;;;
2022/12/26 07:43:46;;;;;;;;;;;;;;;;;;;;;
2022/12/26 07:46:14;;;;;;;21.35;10.40;;;;;;;15.00;100.00;95217.44;5082068;28;20438;-92
2022/12/26 07:48:42;;;;;;;22.30;10.23;;;;;;;15.16;100.00;95215.47;5080797;28;20082;-92
2022/12/26 07:51:20;;;;;;;;;;;;;;;;;;;;;
2022/12/26 07:53:53;;;;;;;16.98;9.13;;;;;;;15.03;100.00;95224.81;5082287;28;20054;-90
2022/12/26 07:56:20;;;;;;;39.95;9.40;;;;;;;15.24;100.00;95230.72;5082409;28;20048;-91
2022/12/26 07:58:59;;;;;;;;;;;;;;;;;;;;;
2022/12/26 08:01:30;;;;;;;17.33;8.80;;;;;;;15.35;100.00;95224.31;5080865;28;20433;-93
2022/12/26 08:04:00;;;;;;;27.08;10.55;;;;;;;15.66;100.00;95224.06;5064017;28;20028;-92
2022/12/26 08:06:28;;;;;;;18.27;9.75;;;;;;;15.43;100.00;95227.41;5079508;28;20029;-92
2022/12/26 08:08:54;;;;;;;19.50;9.48;;;;;;;15.66;100.00;95223.25;5079588;28;20553;-91
2022/12/26 08:11:24;;;;;;;21.83;9.10;;;;;;;15.98;100.00;95227.19;5079533;28;20056;-92
2022/12/26 08:14:00;;;;;;;18.85;9.35;;;;;;;16.23;100.00;95215.59;5078900;28;20437;-90
2022/12/26 08:16:30;;;;;;;20.05;10.23;;;;;;;16.00;100.00;95224.28;5063092;28;20325;-90
2022/12/26 08:19:03;;;;;;;18.05;8.48;;;;;;;16.13;100.00;95220.97;5079444;28;20032;-91
2022/12/26 08:21:34;;;;;;;18.90;8.95;;;;;;;16.26;100.00;95214.22;5079250;28;20384;-91
2022/12/26 08:24:02;;;;;;;18.10;8.52;;;;;;;15.96;100.00;95216.94;5079558;28;20031;-92
2022/12/26 08:26:38;;;;;;;14.00;8.20;;;;;;;16.28;100.00;95221.88;5079438;28;20426;-92
2022/12/26 08:29:10;;;;;;;21.35;8.93;;;;;;;15.93;100.00;95221.97;5078820;28;20028;-91
2022/12/26 08:31:38;;;;;;;18.10;8.70;;;;;;;16.05;100.00;95232.16;5079092;28;20052;-92
2022/12/26 08:34:14;;;;;;;24.02;8.82;;;;;;;15.73;100.00;95225.56;5080421;28;20039;-91
2022/12/26 08:36:47;;;;;;;22.92;8.52;;;;;;;15.83;100.00;95218.31;5079649;28;20025;-92
2022/12/26 08:39:15;;;;;;;19.67;7.75;;;;;;;15.75;100.00;95228.72;5078347;28;20056;-90
2022/12/26 08:41:41;;;;;;;18.20;8.02;;;;;;;15.86;100.00;95235.50;5078855;28;20028;-91
2022/12/26 08:44:16;;;;;;;19.10;8.88;;;;;;;16.42;100.00;95225.41;5078789;28;20035;-91
2022/12/26 08:46:42;;;;;;;19.60;8.52;;;;;;;16.58;100.00;95227.84;5079050;28;20131;-92
2022/12/26 08:49:13;;;;;;;22.48;8.57;;;;;;;16.46;100.00;95226.41;5079706;28;20032;-91
2022/12/26 08:51:39;;;;;;;18.95;7.90;;;;;;;16.46;100.00;95218.47;5079086;28;20075;-91
2022/12/26 08:54:07;;;;;;;14.38;7.97;;;;;;;16.55;100.00;95226.56;5079352;28;20036;-92
2022/12/26 08:56:35;;;;;;;20.73;9.52;;;;;;;16.70;100.00;95224.78;5078019;28;20021;-91
2022/12/26 08:59:03;;;;;;;17.15;8.80;;;;;;;16.80;100.00;95225.47;5078789;28;20028;-91
2022/12/26 09:01:33;;;;;;;15.50;9.18;;;;;;;16.89;100.00;95222.97;5078752;28;20070;-91
2022/12/26 09:04:05;;;;;;;19.88;8.30;;;;;;;16.80;100.00;95230.75;5061928;28;20028;-91
2022/12/26 09:06:32;;;;;;;17.77;7.95;;;;;;;16.86;100.00;95233.31;5077294;28;20039;-91
2022/12/26 09:08:59;;;;;;;15.27;7.75;;;;;;;16.85;100.00;95235.16;5077510;28;20029;-90
2022/12/26 09:11:31;;;;;;;13.55;7.15;;;;;;;16.78;100.00;95230.22;5061223;28;20048;-92
2022/12/26 09:14:00;;;;;;;14.27;7.20;;;;;;;16.97;100.00;95229.47;5061724;28;20132;-91
2022/12/26 09:16:34;;;;;;;19.70;7.43;;;;;;;16.79;100.00;95228.38;5077632;28;20032;-92
2022/12/26 09:19:18;;;;;;;;;;;;;;;;;;;;;
2022/12/26 09:21:45;;;;;;;15.38;7.50;;;;;;;17.04;100.00;95219.31;5077253;28;20020;-90
2022/12/26 09:24:13;;;;;;;17.48;7.35;;;;;;;17.24;100.00;95230.69;5077900;28;20426;-90
2022/12/26 09:26:39;;;;;;;12.68;7.22;;;;;;;17.03;100.00;95235.50;5077920;28;20036;-91
2022/12/26 09:29:08;;;;;;;17.50;8.05;;;;;;;17.13;100.00;95238.00;5077709;28;20384;-91
2022/12/26 09:31:44;;;;;;;16.50;7.28;;;;;;;17.36;100.00;95233.69;5061749;28;20024;-91
2022/12/26 09:34:24;;;;;;;;;;;;;;;;;;;;;
2022/12/26 09:36:50;;;;;;;16.63;6.97;;;;;;;16.87;100.00;95232.25;5077811;28;20433;-89
2022/12/26 09:39:16;;;;;;;16.88;6.43;;;;;;;16.68;100.00;95227.75;5077390;28;20038;-89
2022/12/26 09:41:41;;;;;;;14.05;8.05;;;;;;;17.23;100.00;95226.47;5077200;28;20440;-92
2022/12/26 09:44:19;;;;;;;11.68;5.88;;;;;;;17.75;100.00;95226.44;5076348;28;20123;-90
2022/12/26 09:47:10;;;;;;;13.18;7.18;;;;;;;18.07;100.00;95216.06;5077479;28;20357;-89
2022/12/26 09:49:42;;;;;;;17.83;6.45;;;;;;;18.01;100.00;95218.03;5076526;28;20028;-90
2022/12/26 09:52:25;;;;;;;11.88;5.70;;;;;;;17.49;100.00;95229.50;4603597;27;12891072;-87
2022/12/26 09:54:53;;;;;;;11.38;6.38;;;;;;;18.12;100.00;95231.91;5036692;28;20033;-86
2022/12/26 09:57:24;;;;;;;12.20;5.50;;;;;;;18.22;100.00;95221.13;5000066;28;20030;-88
2022/12/26 10:00:04;;;;;;;12.52;6.07;;;;;;;18.39;100.00;95232.19;5017322;28;20022;-88
2022/12/26 10:02:29;;;;;;;9.80;5.32;;;;;;;18.20;100.00;95223.25;5017183;28;20026;-88
2022/12/26 10:04:58;;;;;;;14.60;5.70;;;;;;;18.38;100.00;95223.47;5016761;28;20335;-90
2022/12/26 10:07:23;;;;;;;11.10;5.20;;;;;;;18.04;100.00;95227.28;5016724;28;20134;-88
2022/12/26 10:10:04;;;;;;;9.38;4.80;;;;;;;18.33;100.00;95223.56;5016185;28;20060;-87
2022/12/26 10:12:55;;;;;;;10.85;5.43;;;;;;;18.44;100.00;95227.56;5033721;28;20104;-87
2022/12/26 10:15:55;;;;;;;12.27;3.67;;;;;;;18.20;94.04;95223.25;5021860;28;20024;-89
2022/12/26 10:18:29;;;;;;;7.10;3.30;;;;;;;18.16;100.00;95224.94;5035953;28;20033;-92
2022/12/26 10:21:35;;;;;;;13.45;4.90;;;;;;;18.47;96.92;95226.97;5055995;28;20083;-95
2022/12/26 10:24:37;;;;;;;;;;;;;;;;;;;;;
2022/12/26 10:27:25;;;;;;;10.52;4.70;;;;;;;18.46;100.00;95216.69;5036213;28;20116;-91
2022/12/26 10:29:58;;;;;;;8.80;4.40;;;;;;;18.70;100.00;95220.94;5219193;23;20041;-86
2022/12/26 10:32:38;;;;;;;8.93;4.82;;;;;;;18.74;100.00;95222.72;5019815;28;20028;-86
2022/12/26 10:35:29;;;;;;;10.05;5.40;;;;;;;19.03;98.88;95220.81;5019984;28;20036;-86
2022/12/26 10:37:57;;;;;;;10.88;5.18;;;;;;;18.88;100.00;95212.09;5035121;28;20024;-86
2022/12/26 10:40:34;;;;;;;7.30;4.53;;;;;;;18.89;100.00;95212.84;5035420;28;20024;-87
2022/12/26 10:43:19;;;;;;;11.25;4.93;;;;;;;18.73;96.37;95210.53;5035681;28;20025;-86
2022/12/26 10:45:52;;;;;;;9.98;4.63;;;;;;;18.27;99.45;95209.59;5052829;28;20083;-88
2022/12/26 10:48:18;;;;;;;9.02;4.85;;;;;;;18.30;100.00;95211.69;5053803;28;20029;-89
2022/12/26 10:50:47;;;;;;;13.27;4.97;;;;;;;17.92;100.00;95215.25;5019405;28;20095;-89
2022/12/26 10:53:13;;;;;;;11.02;5.25;;;;;;;18.25;96.96;95214.41;5019830;28;20040;-89
2022/12/26 10:55:39;;;;;;;12.63;5.32;;;;;;;18.21;100.00;95206.25;5016093;28;20057;-89
2022/12/26 10:58:17;;;;;;;12.15;5.80;;;;;;;17.40;100.00;95211.91;5005606;28;20061;-89
2022/12/26 11:00:42;;;;;;;10.32;4.90;;;;;;;17.66;100.00;95202.47;5035705;28;20035;-89
2022/12/26 11:03:14;;;;;;;9.18;5.35;;;;;;;17.98;100.00;95207.22;5024812;28;20029;-89
2022/12/26 11:05:43;;;;;;;13.52;5.65;;;;;;;17.55;100.00;95198.41;5006106;28;20030;-89
2022/12/26 11:08:18;;;;;;;13.90;4.63;;;;;;;17.65;100.00;95189.50;5022285;28;20030;-88
2022/12/26 11:11:06;;;;;;;10.60;5.32;;;;;;;18.03;100.00;95197.34;5006009;28;20127;-89
2022/12/26 11:13:38;;;;;;;12.80;5.53;;;;;;;16.70;100.00;95203.63;5022148;28;20037;-87
2022/12/26 11:16:04;;;;;;;12.95;5.82;;;;;;;16.91;100.00;95191.69;5021429;28;20377;-87
2022/12/26 11:18:36;;;;;;;13.25;5.18;;;;;;;17.56;100.00;95192.03;5005580;28;20064;-86
2022/12/26 11:21:17;;;;;;;11.75;5.72;;;;;;;18.16;100.00;95193.09;5005322;28;20025;-86
2022/12/26 11:23:47;;;;;;;10.38;6.20;;;;;;;17.92;100.00;95190.63;5013703;28;20033;-86
2022/12/26 11:26:22;;;;;;;13.52;6.13;;;;;;;18.04;97.38;95190.16;4994600;28;20037;-86
2022/12/26 11:29:09;;;;;;;15.18;6.97;;;;;;;17.70;100.00;95204.53;4985304;28;20045;-86
2022/12/26 11:31:35;;;;;;;16.35;6.95;;;;;;;17.87;99.64;95191.50;5001911;28;20129;-86
2022/12/26 11:34:06;;;;;;;11.60;6.00;;;;;;;18.16;94.03;95187.81;5001647;28;20438;-86
2022/12/26 11:36:33;;;;;;;8.45;5.60;;;;;;;18.00;98.05;95184.63;5018685;28;20124;-86
2022/12/26 11:39:05;;;;;;;12.85;5.43;;;;;;;18.42;96.38;95189.16;5001690;28;20039;-86
2022/12/26 11:41:32;;;;;;;15.90;5.90;;;;;;;18.34;92.99;95180.03;5001363;28;20570;-86
2022/12/26 11:44:09;;;;;;;13.07;5.53;;;;;;;18.50;91.95;95194.53;4985453;28;20034;-86
2022/12/26 11:46:50;;;;;;;12.88;5.43;;;;;;;18.70;90.42;95181.94;5001309;28;20057;-87
2022/12/26 11:49:25;;;;;;;10.68;4.90;;;;;;;17.61;100.00;95180.56;5032838;28;20033;-86
2022/12/26 11:51:54;;;;;;;13.02;4.93;;;;;;;18.14;93.03;95166.09;5020872;28;20029;-86
2022/12/26 11:54:21;;;;;;;11.98;4.97;;;;;;;18.20;90.91;95162.25;5005090;28;20120;-86
2022/12/26 11:56:47;;;;;;;10.50;4.72;;;;;;;18.37;89.80;95166.97;5004298;28;20072;-87
2022/12/26 11:59:22;;;;;;;10.30;5.45;;;;;;;17.43;98.60;95166.31;5021331;28;20068;-86
2022/12/26 12:02:14;;;;;;;12.75;5.32;;;;;;;18.15;94.51;95158.94;5005061;28;20322;-85
2022/12/26 12:04:44;;;;;;;9.18;4.72;;;;;;;17.81;97.41;95155.56;5020682;28;20385;-87
2022/12/26 12:07:16;;;;;;;9.98;5.22;;;;;;;17.67;97.05;95152.91;5020624;28;20132;-86
2022/12/26 12:10:17;;;;;;;10.57;5.85;;;;;;;17.84;96.29;95160.28;5020761;28;20434;-86
2022/12/26 12:12:54;;;;;;;11.40;5.35;;;;;;;18.13;92.96;95156.59;5015702;28;20117;-86
2022/12/26 12:15:26;;;;;;;10.80;5.60;;;;;;;17.94;91.80;95144.19;5019712;28;20075;-86
2022/12/26 12:18:18;;;;;;;12.70;5.90;;;;;;;18.16;87.71;95150.69;5020661;28;20052;-87
2022/12/26 12:21:04;;;;;;;13.02;7.55;;;;;;;18.44;89.04;95144.56;5000203;28;20037;-86
2022/12/26 12:23:48;;;;;;;15.75;7.80;;;;;;;18.28;90.47;95147.50;5021346;28;20037;-88
2022/12/26 12:26:26;;;;;;;15.32;8.15;;;;;;;18.21;90.97;95149.78;5020873;28;20022;-87
2022/12/26 12:29:16;;;;;;;21.90;9.10;;;;;;;17.28;95.15;95139.00;5005015;28;20038;-87
2022/12/26 12:31:56;;;;;;;15.55;7.97;;;;;;;17.68;90.98;95135.91;5021037;28;20026;-88
2022/12/26 12:34:36;;;;;;;19.98;9.25;;;;;;;18.12;89.04;95141.75;5021123;28;20345;-88
2022/12/26 12:37:20;;;;;;;19.80;8.18;;;;;;;17.01;93.03;95121.19;5003659;28;20032;-88
2022/12/26 12:40:14;;;;;;;16.23;8.38;;;;;;;18.25;86.91;95118.94;5020577;28;20029;-89
2022/12/26 12:42:59;;;;;;;21.48;9.70;;;;;;;17.94;93.14;95124.84;4985558;28;20033;-89
2022/12/26 12:45:43;;;;;;;22.48;9.55;;;;;;;18.01;91.44;95135.03;5020770;28;20112;-89
2022/12/26 12:48:39;;;;;;;16.50;8.63;;;;;;;17.83;94.72;95144.66;5020778;28;20032;-89
2022/12/26 12:51:28;;;;;;;19.13;8.70;;;;;;;18.06;88.01;95121.72;5020657;28;20080;-89
2022/12/26 12:54:15;;;;;;;18.90;8.95;;;;;;;18.51;89.17;95135.13;5019622;28;20433;-90
2022/12/26 12:56:59;;;;;;;12.07;6.28;;;;;;;17.51;99.42;95126.69;5020314;28;20037;-90
2022/12/26 12:59:41;;;;;;;20.55;9.02;;;;;;;18.41;84.27;95124.72;5003895;28;20021;-89
2022/12/26 13:02:16;;;;;;;13.95;7.28;;;;;;;18.49;89.18;95125.88;5037896;28;20553;-90
2022/12/26 13:04:46;;;;;;;20.38;7.80;;;;;;;17.85;96.46;95124.75;5007666;28;20026;-89
2022/12/26 13:07:26;;;;;;;17.90;8.18;;;;;;;18.11;92.07;95126.94;5001572;28;20025;-89
2022/12/26 13:09:56;;;;;;;13.38;7.22;;;;;;;19.04;85.76;95119.59;5000878;28;20112;-89
2022/12/26 13:12:24;;;;;;;18.02;7.38;;;;;;;19.00;81.04;95109.88;5000872;28;20030;-89
2022/12/26 13:15:22;;;;;;;16.38;6.85;;;;;;;18.05;89.01;95122.78;5000772;28;20022;-89
2022/12/26 13:18:03;;;;;;;11.00;5.25;;;;;;;18.82;86.29;95111.63;4983630;28;20064;-89
2022/12/26 13:20:39;;;;;;;21.02;7.18;;;;;;;18.39;93.42;95120.78;4984396;28;20029;-88
2022/12/26 13:26:24;;;;;;;16.98;6.22;;;;;;;19.16;81.15;95115.59;4968296;28;20064;-88
2022/12/26 13:29:01;;;;;;;15.48;5.57;;;;;;;19.28;81.43;95110.53;5000311;28;20079;-89
2022/12/26 13:31:32;;;;;;;13.43;6.07;;;;;;;19.35;78.00;95108.19;4983897;28;20120;-88
2022/12/26 13:33:58;;;;;;;22.63;10.25;;;;;;;18.02;91.34;95104.81;4984201;28;20029;-88
2022/12/26 13:36:54;;;;;;;28.25;12.85;;;;;;;18.40;92.30;95114.38;4999356;28;20438;-89
2022/12/26 13:39:26;;;;;;;27.05;13.35;;;;;;;17.83;90.31;95102.25;4964400;28;20045;-88
2022/12/26 13:45:36;;;;;;;31.05;15.60;;;;;;;18.77;83.89;95107.97;4945893;29;20042;-90
2022/12/26 13:48:16;;;;;;;31.05;14.65;;;;;;;18.04;93.46;95100.00;4958415;28;20035;-89
2022/12/26 13:50:55;;;;;;;29.23;15.05;;;;;;;18.61;85.40;95112.06;4988723;28;20042;-88
2022/12/26 13:53:23;;;;;;;30.38;15.13;;;;;;;18.82;88.18;95104.41;4983813;28;20042;-88
2022/12/26 13:55:53;;;;;;;43.15;20.35;;;;;;;18.54;87.63;95112.47;4999304;28;20113;-88
2022/12/26 13:58:31;;;;;;;36.90;20.25;;;;;;;18.32;89.43;95111.38;4983695;28;20346;-88
2022/12/26 14:01:29;;;;;;;50.42;19.58;;;;;;;17.88;92.52;95108.25;4999580;28;20030;-88
2022/12/26 14:04:10;;;;;;;40.50;18.85;;;;;;;18.16;94.65;95105.59;4983391;28;20034;-88
2022/12/26 14:06:40;;;;;;;48.13;20.33;;;;;;;18.33;92.04;95112.16;4999140;28;20034;-88
2022/12/26 14:09:09;;;;;;;51.90;24.35;;;;;;;18.04;89.74;95116.72;4999629;28;20026;-88